Time;durP1;ratioP1;P1;durP2;ratioP2;P2;SDS_P1;SDS_P2;PMS_P1;PMS_P2;Temp;Humidity;BMP_temperature;BMP_pressure;BME280_temperature;BME280_humidity;BME280_pressure;Samples;Min_cycle;Max_cycle;Signal;HPM_P1;HPM_P2
2023/05/05 00:00:07;;;;;;;633.33;581.17;;;14.00;99.90;;;14.29;100.00;100287.91;4919948;28;20266;-76
2023/05/05 00:02:35;;;;;;;629.00;576.92;;;14.00;99.90;;;14.37;100.00;100293.22;4929588;28;20235;-76
2023/05/05 00:05:02;;;;;;;625.45;573.60;;;14.10;99.90;;;14.34;100.00;100301.22;4927291;28;20234;-76
2023/05/05 00:07:29;;;;;;;612.70;561.38;;;14.00;99.90;;;14.31;100.00;100304.78;4938519;28;20273;-76
2023/05/05 00:09:56;;;;;;;615.75;563.63;;;14.00;99.90;;;14.22;100.00;100319.91;4937451;28;20261;-76
2023/05/05 00:12:23;;;;;;;606.65;555.53;;;14.00;99.90;;;14.28;100.00;100334.03;4955426;28;20255;-76
2023/05/05 00:14:50;;;;;;;616.03;564.88;;;13.90;99.90;;;14.21;100.00;100329.66;4931876;28;20272;-76
2023/05/05 00:17:17;;;;;;;623.90;572.40;;;13.90;99.90;;;14.24;100.00;100334.97;4943882;28;20264;-76
2023/05/05 00:19:44;;;;;;;610.97;559.22;;;14.00;99.90;;;14.35;100.00;100342.88;4933278;28;20230;-76
2023/05/05 00:22:14;;;;;;;601.20;550.03;;;14.00;99.90;;;14.28;100.00;100334.03;4939412;28;20257;-77
2023/05/05 00:24:41;;;;;;;597.25;546.63;;;14.00;99.90;;;14.33;100.00;100336.69;4937224;28;20250;-76
2023/05/05 00:27:09;;;;;;;585.45;535.22;;;14.00;99.90;;;14.48;100.00;100341.03;4932748;28;20246;-76
2023/05/05 00:29:36;;;;;;;594.88;544.33;;;14.10;99.90;;;14.68;100.00;100347.06;4936764;28;20297;-76
2023/05/05 00:32:03;;;;;;;607.13;556.40;;;14.30;99.90;;;14.46;100.00;100340.19;4925699;28;20398;-75
2023/05/05 00:34:31;;;;;;;592.83;542.15;;;14.20;99.90;;;14.32;100.00;100341.13;4933148;28;20231;-76
2023/05/05 00:36:58;;;;;;;593.03;542.40;;;14.10;99.90;;;14.18;100.00;100366.91;4924873;28;20293;-77
2023/05/05 00:39:25;;;;;;;590.17;539.35;;;14.00;99.90;;;14.27;100.00;100390.78;4928720;28;20290;-77
2023/05/05 00:41:52;;;;;;;568.03;518.17;;;14.00;99.90;;;14.28;100.00;100387.25;4932581;28;20239;-77
2023/05/05 00:44:39;;;;;;;586.13;536.10;;;14.00;99.90;;;14.39;100.00;100384.53;4930732;28;20258;-77
2023/05/05 00:47:08;;;;;;;562.47;512.58;;;14.00;99.90;;;14.35;100.00;100370.38;4934925;28;20245;-76
2023/05/05 00:49:35;;;;;;;571.08;521.08;;;14.10;99.90;;;14.37;100.00;100357.06;4923941;29;20275;-77
2023/05/05 00:52:04;;;;;;;567.92;518.33;;;14.10;99.90;;;14.12;100.00;100360.75;4933001;29;20327;-77
2023/05/05 00:54:35;;;;;;;602.45;551.35;;;14.00;99.90;;;14.24;100.00;100374.84;4933968;28;20298;-76
2023/05/05 00:57:02;;;;;;;592.42;541.83;;;13.90;99.90;;;14.14;100.00;100367.84;4928839;28;20702;-76
2023/05/05 00:59:32;;;;;;;582.70;532.55;;;14.00;99.90;;;14.14;100.00;100378.47;4920306;28;20243;-76
2023/05/05 01:01:59;;;;;;;592.38;541.22;;;13.90;99.90;;;14.23;100.00;100372.19;4932100;28;20234;-77
2023/05/05 01:04:26;;;;;;;591.67;540.90;;;13.90;99.90;;;14.26;100.00;100357.09;4920527;29;20297;-77
2023/05/05 01:07:13;;;;;;;577.00;526.30;;;14.00;99.90;;;14.22;100.00;100357.13;4921679;28;20241;-77
2023/05/05 01:10:19;;;;;;;573.58;523.53;;;14.00;99.90;;;13.93;100.00;100365.31;4943653;28;20303;-76
2023/05/05 01:13:15;;;;;;;565.63;515.55;;;13.80;99.90;;;13.68;100.00;100373.41;4929334;28;20786;-76
2023/05/05 01:16:01;;;;;;;563.67;513.75;;;13.60;99.90;;;13.75;100.00;100388.44;4921589;29;20703;-76
2023/05/05 01:19:02;;;;;;;562.33;511.55;;;13.50;99.90;;;13.75;100.00;100384.88;4923963;29;20324;-76
2023/05/05 01:21:54;;;;;;;533.20;483.63;;;13.50;99.90;;;13.78;100.00;100385.75;4931170;28;20246;-76
2023/05/05 01:24:33;;;;;;;540.50;491.33;;;13.50;99.90;;;13.90;100.00;100386.59;4929605;28;20299;-76
2023/05/05 01:27:33;;;;;;;557.85;507.45;;;13.60;99.90;;;13.97;100.00;100378.56;4927648;28;20269;-76
2023/05/05 01:30:28;;;;;;;548.90;498.95;;;13.60;99.90;;;13.95;100.00;100369.72;4929000;28;20296;-76
2023/05/05 01:33:05;;;;;;;539.45;490.25;;;13.60;99.90;;;14.04;100.00;100367.00;4931121;28;20287;-77
2023/05/05 01:35:40;;;;;;;550.75;500.90;;;13.70;99.90;;;13.91;100.00;100364.44;4932635;28;20241;-76
2023/05/05 01:38:16;;;;;;;540.95;491.08;;;13.60;99.90;;;13.85;100.00;100357.38;4932072;28;20234;-76
2023/05/05 01:40:48;;;;;;;509.38;460.73;;;13.60;99.90;;;13.82;100.00;100349.41;4926504;29;20279;-75
2023/05/05 01:43:20;;;;;;;560.55;510.55;;;13.50;99.90;;;13.76;100.00;100360.97;4917044;29;20254;-77
2023/05/05 01:45:48;;;;;;;516.33;467.05;;;13.50;99.90;;;13.69;100.00;100371.63;4935569;28;20268;-77
2023/05/05 01:48:18;;;;;;;519.83;470.58;;;13.40;99.90;;;13.72;100.00;100374.28;4930427;29;20239;-77
2023/05/05 01:50:47;;;;;;;557.10;506.10;;;13.50;99.90;;;13.81;100.00;100386.63;4929303;28;20334;-76
2023/05/05 01:53:16;;;;;;;546.30;497.50;;;13.50;99.90;;;13.77;100.00;100391.97;4930414;28;20243;-75
2023/05/05 01:55:45;;;;;;;568.27;521.37;;;13.40;99.90;;;13.64;100.00;100387.59;4931811;28;20242;-76
2023/05/05 01:58:15;;;;;;;580.72;530.15;;;13.40;99.90;;;13.73;100.00;100400.84;4929917;29;20297;-76
2023/05/05 02:00:43;;;;;;;568.40;518.57;;;13.40;99.90;;;13.69;100.00;100408.84;4924978;29;20610;-76
2023/05/05 02:03:13;;;;;;;592.35;541.45;;;13.40;99.90;;;13.60;100.00;100408.88;4907757;28;20242;-76
2023/05/05 02:05:42;;;;;;;617.25;566.25;;;13.30;99.90;;;13.60;100.00;100414.19;4922015;28;20250;-76
2023/05/05 02:08:11;;;;;;;715.97;662.63;;;13.30;99.90;;;13.71;100.00;100417.69;4901114;29;20242;-75
2023/05/05 02:10:39;;;;;;;630.90;579.35;;;13.40;99.90;;;13.47;100.00;100434.59;4929796;29;20245;-76
2023/05/05 02:13:09;;;;;;;548.90;499.58;;;13.30;99.90;;;13.45;100.00;100439.03;4929497;28;20675;-76
2023/05/05 02:15:37;;;;;;;597.63;547.13;;;13.20;99.90;;;13.63;100.00;100449.59;4928056;28;20253;-76
2023/05/05 02:18:06;;;;;;;618.70;568.17;;;13.30;99.90;;;13.70;100.00;100451.34;4917711;29;20239;-77
2023/05/05 02:20:37;;;;;;;634.67;583.67;;;13.30;99.90;;;13.56;100.00;100471.78;4920696;28;20235;-76
2023/05/05 02:23:06;;;;;;;648.07;597.17;;;13.30;99.90;;;13.64;100.00;100469.09;4928172;28;20785;-77
2023/05/05 02:25:44;;;;;;;626.27;574.87;;;13.30;99.90;;;13.61;100.00;100469.97;4932316;29;20234;-77
2023/05/05 02:28:32;;;;;;;615.80;565.80;;;13.30;99.90;;;13.58;100.00;100471.75;4925013;28;20258;-76
2023/05/05 02:31:01;;;;;;;667.53;615.67;;;13.30;99.90;;;13.39;100.00;100494.84;4931507;28;20238;-77
2023/05/05 02:33:32;;;;;;;640.63;589.20;;;13.20;99.90;;;13.39;100.00;100503.69;4923385;28;20253;-77
2023/05/05 02:36:11;;;;;;;681.90;629.60;;;13.10;99.90;;;13.42;100.00;100521.38;4931706;28;20325;-76
2023/05/05 02:38:42;;;;;;;661.20;608.73;;;13.10;99.90;;;13.39;100.00;100519.63;4926897;29;20649;-76
2023/05/05 02:41:15;;;;;;;655.87;604.60;;;13.10;99.90;;;13.17;100.00;100530.25;4930754;28;20720;-77
2023/05/05 02:43:45;;;;;;;677.33;625.17;;;13.00;99.90;;;13.06;100.00;100533.75;4933856;28;20297;-77
2023/05/05 02:46:12;;;;;;;644.40;593.37;;;12.80;99.90;;;13.06;100.00;100547.03;4905976;29;20259;-76
2023/05/05 02:48:39;;;;;;;624.53;572.97;;;12.80;99.90;;;12.95;100.00;100553.19;4922966;28;20242;-77
2023/05/05 02:51:06;;;;;;;610.70;560.93;;;12.80;99.90;;;13.01;100.00;100566.50;4928416;28;20322;-76
2023/05/05 02:53:33;;;;;;;626.00;575.37;;;12.80;99.90;;;12.88;100.00;100568.22;4930430;28;20282;-77
2023/05/05 02:56:40;;;;;;;613.67;562.90;;;13.10;99.90;;;12.87;100.00;100582.38;4930701;28;20321;-76
2023/05/05 02:59:40;;;;;;;577.57;528.20;;;12.60;99.90;;;12.92;100.00;100585.03;4921954;29;20814;-77
2023/05/05 03:02:18;;;;;;;563.30;513.83;;;12.70;99.90;;;12.95;100.00;100593.91;4930704;28;20229;-75
2023/05/05 03:04:56;;;;;;;595.33;544.10;;;12.70;99.90;;;12.88;100.00;100596.53;4933019;28;20268;-76
2023/05/05 03:07:54;;;;;;;585.93;536.00;;;12.70;99.90;;;12.87;100.00;100608.91;4927284;29;20296;-75
2023/05/05 03:10:29;;;;;;;558.43;508.43;;;12.70;99.90;;;12.89;100.00;100616.88;4929369;28;20233;-76
2023/05/05 03:13:01;;;;;;;590.80;540.37;;;12.60;99.90;;;12.85;100.00;100626.59;4925377;28;20233;-75
2023/05/05 03:15:44;;;;;;;575.10;525.90;;;12.60;99.90;;;13.28;100.00;100662.16;4928992;28;20269;-76
2023/05/05 03:18:14;;;;;;;559.07;509.30;;;12.80;99.90;;;13.48;100.00;100658.66;4910266;29;20794;-77
2023/05/05 03:20:42;;;;;;;555.17;506.23;;;13.10;99.90;;;13.39;100.00;100652.44;4923896;29;20336;-76
2023/05/05 03:23:12;;;;;;;556.83;507.57;;;13.10;99.90;;;13.34;100.00;100645.34;4920840;28;20261;-76
2023/05/05 03:25:43;;;;;;;559.00;510.30;;;13.10;99.90;;;13.18;100.00;100647.09;4917455;29;20247;-76
2023/05/05 03:28:10;;;;;;;547.57;498.47;;;12.90;99.90;;;13.67;100.00;100689.66;4921883;28;20268;-76
2023/05/05 03:30:37;;;;;;;551.37;502.03;;;13.30;99.90;;;14.06;100.00;100710.03;4930852;28;20231;-75
2023/05/05 03:33:04;;;;;;;520.92;472.08;;;13.50;99.90;;;14.35;100.00;100689.63;4926983;28;20242;-76
2023/05/05 03:35:32;;;;;;;538.63;489.75;;;13.90;99.90;;;14.55;100.00;100672.75;4925450;28;20262;-76
2023/05/05 03:37:59;;;;;;;532.03;482.75;;;14.10;99.90;;;14.69;100.00;100658.50;4930823;28;20239;-76
2023/05/05 03:40:26;;;;;;;582.30;529.10;;;14.30;99.90;;;14.57;100.00;100629.28;4927121;29;20234;-77
2023/05/05 03:43:09;;;;;;;547.78;496.48;;;14.30;99.90;;;13.96;100.00;100602.81;4923224;28;20234;-76
2023/05/05 03:45:36;;;;;;;577.40;525.25;;;13.90;99.90;;;13.65;100.00;100601.06;4928772;28;20348;-75
2023/05/05 03:48:04;;;;;;;546.25;495.13;;;13.50;99.90;;;13.24;100.00;100619.66;4932909;28;20276;-77
2023/05/05 03:50:31;;;;;;;547.85;496.77;;;13.20;99.90;;;13.15;100.00;100631.13;4927139;28;20239;-77
2023/05/05 03:52:58;;;;;;;548.10;496.15;;;13.00;99.90;;;13.09;100.00;100634.66;4933085;28;20235;-76
2023/05/05 03:55:25;;;;;;;539.97;489.23;;;12.90;99.90;;;13.05;100.00;100642.63;4930304;28;20238;-77
2023/05/05 03:57:52;;;;;;;546.17;494.15;;;12.90;99.90;;;13.04;100.00;100648.81;4934661;28;20308;-77
2023/05/05 04:00:19;;;;;;;539.17;488.15;;;12.90;99.90;;;13.19;100.00;100674.53;4928655;29;20290;-77
2023/05/05 04:02:46;;;;;;;546.10;494.83;;;12.90;99.90;;;13.07;100.00;100673.59;4924693;29;20329;-76
2023/05/05 04:05:13;;;;;;;536.53;486.13;;;12.80;99.90;;;13.02;100.00;100701.91;4928749;28;20234;-76
2023/05/05 04:07:40;;;;;;;542.33;490.45;;;12.80;99.90;;;13.10;100.00;100701.94;4922630;28;20242;-77
2023/05/05 04:10:08;;;;;;;535.10;484.67;;;12.80;99.90;;;13.11;100.00;100709.00;4931434;28;20274;-77
2023/05/05 04:12:35;;;;;;;532.63;482.27;;;12.80;99.90;;;13.16;100.00;100712.56;4933784;28;20294;-77
2023/05/05 04:15:02;;;;;;;527.30;477.00;;;12.90;99.90;;;15.13;100.00;100821.66;4931115;28;20721;-77
2023/05/05 04:17:29;;;;;;;545.40;493.38;;;14.00;99.90;;;15.92;100.00;100730.63;4927078;28;20288;-76
2023/05/05 04:19:56;;;;;;;555.08;503.58;;;15.80;99.90;;;16.62;100.00;100684.56;4930232;28;20241;-76
2023/05/05 04:22:23;;;;;;;573.97;522.38;;;15.90;99.90;;;16.63;100.00;100592.88;4930451;28;20239;-77
2023/05/05 04:24:50;;;;;;;589.38;535.88;;;16.20;99.90;;;16.41;100.00;100544.22;4928611;28;20251;-76
2023/05/05 04:27:21;;;;;;;602.38;548.38;;;16.20;99.90;;;16.37;100.00;100522.94;4942601;28;20243;-77
2023/05/05 04:29:48;;;;;;;599.70;546.42;;;15.70;99.90;;;15.61;100.00;100493.59;4926656;28;20671;-76
2023/05/05 04:32:15;;;;;;;628.55;573.47;;;15.70;99.90;;;14.83;100.00;100504.00;4916669;28;20267;-78
2023/05/05 04:34:42;;;;;;;608.28;555.92;;;14.90;99.90;;;14.76;100.00;100542.22;4927126;28;20696;-77
2023/05/05 04:37:09;;;;;;;621.55;567.67;;;14.60;99.90;;;14.68;100.00;100554.69;4925609;28;20257;-78
2023/05/05 04:39:36;;;;;;;607.88;555.40;;;;;;;14.75;100.00;100564.41;4926445;28;20333;-76
2023/05/05 04:42:04;;;;;;;622.13;568.67;;;14.50;99.90;;;14.73;100.00;100592.81;4924720;28;20250;-76
2023/05/05 04:44:31;;;;;;;621.50;567.88;;;14.40;99.90;;;14.80;100.00;100605.19;4933221;28;20279;-78
2023/05/05 04:47:00;;;;;;;620.03;566.28;;;14.50;99.90;;;15.08;100.00;100613.03;4929508;28;20242;-76
2023/05/05 04:49:30;;;;;;;609.60;557.72;;;14.60;99.90;;;15.02;100.00;100624.59;4926305;28;20254;-77
2023/05/05 04:51:57;;;;;;;611.63;559.38;;;14.70;99.90;;;15.33;100.00;100633.28;4923119;28;20696;-77
2023/05/05 04:54:24;;;;;;;610.63;558.53;;;14.80;99.90;;;15.34;100.00;100637.72;4934957;28;20238;-78
2023/05/05 04:56:52;;;;;;;622.20;567.97;;;15.00;99.90;;;15.61;100.00;100642.88;4936281;28;20272;-77
2023/05/05 04:59:19;;;;;;;621.20;568.33;;;15.10;99.90;;;15.51;100.00;100626.91;4931479;29;20242;-77
2023/05/05 05:01:46;;;;;;;618.97;566.40;;;15.20;99.90;;;15.51;100.00;100627.81;4934747;28;20289;-75
2023/05/05 05:04:17;;;;;;;621.63;569.03;;;15.20;99.90;;;15.51;100.00;100634.91;4932579;28;20709;-77
2023/05/05 05:06:44;;;;;;;623.25;571.42;;;15.20;99.90;;;16.03;100.00;100664.75;4933223;28;20235;-77
2023/05/05 05:09:12;;;;;;;638.15;583.85;;;15.40;99.90;;;15.88;100.00;100655.09;4927406;28;20230;-77
2023/05/05 05:11:39;;;;;;;633.58;580.05;;;15.50;99.90;;;15.80;100.00;100656.94;4925236;28;20234;-77
2023/05/05 05:14:07;;;;;;;632.20;578.97;;;;;;;15.64;100.00;100665.97;4930982;28;20262;-77
2023/05/05 05:16:37;;;;;;;632.25;579.85;;;15.40;99.90;;;15.59;100.00;100681.97;4935937;28;20249;-77
2023/05/05 05:19:04;;;;;;;634.50;581.42;;;15.30;99.90;;;15.65;100.00;100695.28;4927906;28;20234;-76
2023/05/05 05:21:31;;;;;;;640.30;587.40;;;15.30;99.90;;;15.75;100.00;100706.78;4930560;28;20230;-76
2023/05/05 05:23:58;;;;;;;636.58;584.83;;;15.40;99.90;;;15.80;100.00;100715.63;4930580;28;20305;-76
2023/05/05 05:26:25;;;;;;;647.22;594.38;;;15.40;99.90;;;15.91;100.00;100723.53;4933314;28;20238;-76
2023/05/05 05:28:52;;;;;;;654.00;600.33;;;15.50;99.90;;;16.02;100.00;100731.44;4924100;29;20655;-77
2023/05/05 05:31:19;;;;;;;652.10;599.55;;;15.60;99.90;;;16.14;100.00;100732.22;4930862;28;20262;-76
2023/05/05 05:33:46;;;;;;;658.95;606.47;;;15.70;99.90;;;16.18;100.00;100731.28;4928701;28;20239;-76
2023/05/05 05:36:13;;;;;;;661.78;608.88;;;15.80;99.90;;;16.13;100.00;100738.47;4926337;28;20227;-77
2023/05/05 05:38:40;;;;;;;671.45;617.95;;;15.80;99.90;;;16.09;100.00;100741.16;4935577;28;20286;-77
2023/05/05 05:41:07;;;;;;;675.85;621.60;;;15.80;99.90;;;15.94;100.00;100735.06;4917567;28;20231;-77
2023/05/05 05:43:34;;;;;;;670.15;617.67;;;15.70;99.90;;;15.96;100.00;100743.06;4925694;28;20270;-76
2023/05/05 05:46:01;;;;;;;675.35;622.05;;;15.70;99.90;;;15.92;100.00;100723.53;4929817;28;20238;-77
2023/05/05 05:48:28;;;;;;;691.92;637.03;;;15.70;99.90;;;15.96;100.00;100737.72;4925650;28;20249;-77
2023/05/05 05:50:55;;;;;;;680.50;627.22;;;15.70;99.90;;;16.02;100.00;100753.66;4936371;28;20269;-77
2023/05/05 05:53:22;;;;;;;681.78;629.00;;;15.70;99.90;;;16.01;100.00;100757.22;4925541;28;20246;-77
2023/05/05 05:55:49;;;;;;;693.55;640.20;;;15.70;99.90;;;16.04;100.00;100775.88;4933085;29;20321;-77
2023/05/05 05:58:17;;;;;;;694.15;640.67;;;14.50;99.90;;;15.95;100.00;100779.50;4936362;28;20329;-77
2023/05/05 06:00:44;;;;;;;692.33;638.65;;;15.70;99.90;;;15.98;100.00;100776.81;4915671;29;20243;-77
2023/05/05 06:03:11;;;;;;;694.85;641.28;;;15.80;99.90;;;16.07;100.00;100791.88;4926163;28;20305;-77
2023/05/05 06:05:38;;;;;;;703.53;649.55;;;15.20;99.90;;;16.10;100.00;100789.19;4915858;29;20321;-76
2023/05/05 06:08:06;;;;;;;707.83;653.80;;;15.80;99.90;;;16.26;100.00;100797.94;4933377;28;20235;-77
2023/05/05 06:10:33;;;;;;;709.50;655.58;;;15.90;99.90;;;16.41;100.00;100803.16;4935042;28;20246;-77
2023/05/05 06:13:00;;;;;;;708.55;655.08;;;16.00;99.90;;;16.51;100.00;100798.59;4936555;28;20305;-76
2023/05/05 06:15:27;;;;;;;714.00;659.90;;;16.10;99.90;;;16.61;100.00;100801.16;4931853;28;20231;-77
2023/05/05 06:17:54;;;;;;;715.47;661.33;;;16.20;99.90;;;16.71;100.00;100788.66;4928863;28;20238;-77
2023/05/05 06:20:21;;;;;;;723.15;669.05;;;16.30;99.90;;;16.97;100.00;100782.16;4915356;29;20302;-77
2023/05/05 06:22:48;;;;;;;725.85;671.67;;;16.50;99.90;;;17.07;100.00;100775.81;4918685;29;20290;-77
2023/05/05 06:25:16;;;;;;;729.95;675.63;;;16.70;99.90;;;17.22;100.00;100772.94;4914343;29;20263;-77
2023/05/05 06:27:43;;;;;;;732.53;678.40;;;16.80;99.90;;;17.28;100.00;100775.53;4914685;29;20584;-77
2023/05/05 06:30:10;;;;;;;735.28;680.90;;;17.00;99.90;;;17.40;100.00;100772.69;4936645;28;20317;-77
2023/05/05 06:32:37;;;;;;;746.42;691.25;;;17.00;99.90;;;17.39;100.00;100757.56;4932122;28;20239;-78
2023/05/05 06:35:06;;;;;;;741.83;686.90;;;17.10;99.90;;;17.56;100.00;100760.00;4912705;29;20246;-78
2023/05/05 06:37:33;;;;;;;751.70;696.65;;;17.20;99.90;;;17.73;100.00;100746.41;4926747;28;20317;-77
2023/05/05 06:40:00;;;;;;;758.50;703.25;;;17.30;99.90;;;17.69;100.00;100732.19;4932968;29;20301;-77
2023/05/05 06:42:27;;;;;;;759.35;704.83;;;17.40;99.90;;;17.54;100.00;100714.56;4924082;28;20242;-77
2023/05/05 06:44:54;;;;;;;761.53;705.95;;;17.20;99.90;;;17.58;100.00;100699.34;4923953;28;20230;-78
2023/05/05 06:47:21;;;;;;;759.53;704.70;;;17.30;99.90;;;17.58;100.00;100694.00;4933369;28;20238;-77
2023/05/05 06:49:48;;;;;;;757.65;703.03;;;17.30;99.90;;;17.66;100.00;100664.47;4933385;28;20238;-77
2023/05/05 06:52:15;;;;;;;756.30;702.05;;;17.40;99.90;;;17.69;100.00;100645.72;4926538;28;20238;-77
2023/05/05 06:54:43;;;;;;;764.28;709.50;;;17.40;99.90;;;17.72;100.00;100627.84;4928606;28;20238;-78
2023/05/05 06:57:10;;;;;;;759.92;705.38;;;17.30;99.90;;;17.57;100.00;100647.66;4931016;29;20757;-77
2023/05/05 06:59:37;;;;;;;767.28;712.95;;;17.30;99.90;;;17.56;100.00;100628.97;4935498;28;20718;-77
2023/05/05 07:02:04;;;;;;;772.42;718.00;;;;;;;17.78;100.00;100630.41;4936205;28;20367;-77
2023/05/05 07:04:31;;;;;;;782.85;727.53;;;17.40;99.90;;;17.79;100.00;100629.50;4921066;29;20295;-77
2023/05/05 07:06:58;;;;;;;775.50;720.60;;;18.10;99.90;;;17.87;100.00;100624.00;4924940;29;20337;-77
2023/05/05 07:09:25;;;;;;;779.53;725.10;;;17.50;99.90;;;17.89;100.00;100633.78;4933085;29;20629;-77
2023/05/05 07:11:52;;;;;;;785.05;730.25;;;17.50;99.90;;;18.02;100.00;100639.78;4931914;29;20242;-76
2023/05/05 07:14:19;;;;;;;785.55;729.97;;;17.70;99.90;;;18.03;100.00;100638.88;4913902;29;20259;-78
2023/05/05 07:16:50;;;;;;;777.35;722.20;;;17.70;99.90;;;18.00;100.00;100633.56;4914500;29;20277;-77
2023/05/05 07:19:17;;;;;;;785.65;730.58;;;17.70;99.90;;;17.92;100.00;100627.47;4940192;28;20234;-77
2023/05/05 07:21:46;;;;;;;789.67;734.60;;;17.60;99.90;;;17.88;100.00;100629.31;4935037;28;20300;-78
2023/05/05 07:24:13;;;;;;;789.10;733.85;;;17.60;99.90;;;17.92;100.00;100635.50;4932565;28;20246;-78
2023/05/05 07:26:40;;;;;;;792.75;737.70;;;17.60;99.90;;;17.94;100.00;100643.50;4932311;29;20273;-77
2023/05/05 07:29:06;;;;;;;786.45;731.72;;;17.70;99.90;;;17.92;100.00;100646.22;4922084;29;20314;-78
2023/05/05 07:31:35;;;;;;;787.45;732.67;;;17.60;99.90;;;17.99;100.00;100653.22;4914067;29;20242;-77
2023/05/05 07:34:02;;;;;;;792.00;737.17;;;17.70;99.90;;;18.22;100.00;100667.09;4918623;28;20234;-78
2023/05/05 07:36:29;;;;;;;785.22;731.08;;;17.80;99.90;;;18.41;100.00;100651.56;4935924;28;20229;-78
2023/05/05 07:38:56;;;;;;;798.47;743.58;;;18.00;99.90;;;18.42;100.00;100628.34;4930383;28;20250;-78
2023/05/05 07:41:23;;;;;;;797.58;742.03;;;18.10;99.90;;;18.58;100.00;100629.81;4924872;29;20270;-77
2023/05/05 07:43:50;;;;;;;794.88;739.65;;;18.20;99.90;;;18.78;100.00;100619.59;4921957;28;20325;-78
2023/05/05 07:46:17;;;;;;;813.45;756.88;;;18.40;99.90;;;18.93;100.00;100617.47;4929919;28;20290;-78
2023/05/05 07:48:44;;;;;;;793.35;738.97;;;18.50;99.90;;;19.11;100.00;100614.38;4932637;29;20314;-77
2023/05/05 07:51:11;;;;;;;804.35;747.38;;;18.60;99.90;;;19.40;100.00;100602.97;4932167;28;20230;-78
2023/05/05 07:53:40;;;;;;;815.63;758.88;;;18.90;99.90;;;19.32;100.00;100579.00;4930381;28;20235;-77
2023/05/05 07:56:07;;;;;;;807.20;750.83;;;19.00;99.90;;;19.14;100.00;100537.44;4934676;28;20267;-78
2023/05/05 07:58:35;;;;;;;818.33;761.58;;;18.90;99.90;;;19.26;100.00;100530.91;4936403;28;20325;-78
2023/05/05 08:01:04;;;;;;;820.80;763.63;;;18.90;99.90;;;19.60;100.00;100524.72;4932963;28;20630;-78
2023/05/05 08:03:31;;;;;;;823.53;767.67;;;19.10;99.90;;;19.87;100.00;100507.00;4936932;28;20235;-78
2023/05/05 08:06:10;;;;;;;834.05;777.80;;;19.40;99.90;;;20.13;100.00;100478.47;4933499;28;20245;-78
2023/05/05 08:08:37;;;;;;;846.03;787.78;;;19.70;99.90;;;20.40;100.00;100475.94;4932560;29;20242;-78
2023/05/05 08:11:07;;;;;;;849.88;793.00;;;19.90;99.90;;;20.58;100.00;100461.94;4928887;28;20380;-78
2023/05/05 08:13:34;;;;;;;857.00;799.58;;;20.00;99.90;;;20.45;100.00;100409.50;4927644;28;20285;-78
2023/05/05 08:16:01;;;;;;;859.33;802.45;;;20.20;99.90;;;20.64;100.00;100420.53;4920825;28;20317;-78
2023/05/05 08:18:28;;;;;;;871.53;813.05;;;20.30;99.90;;;20.69;100.00;100378.28;4932440;28;20241;-78
2023/05/05 08:20:56;;;;;;;873.13;815.60;;;20.30;99.90;;;21.02;100.00;100382.53;4932927;28;20235;-78
2023/05/05 08:23:23;;;;;;;882.40;824.50;;;20.60;99.90;;;21.01;100.00;100358.41;4929220;28;20264;-78
2023/05/05 08:25:50;;;;;;;898.20;839.13;;;20.70;99.90;;;21.02;100.00;100325.19;4935366;28;20238;-77
2023/05/05 08:28:17;;;;;;;896.40;837.83;;;;;;;21.30;100.00;100307.16;4928797;28;20245;-77
2023/05/05 08:30:44;;;;;;;910.78;850.05;;;20.80;99.90;;;21.67;100.00;100305.75;4917132;29;20238;-77
2023/05/05 08:33:11;;;;;;;914.17;853.35;;;21.10;99.90;;;21.88;100.00;100271.75;4919906;28;20268;-77
2023/05/05 08:35:38;;;;;;;931.63;868.95;;;21.40;99.90;;;22.02;100.00;100229.88;4936591;29;20253;-78
2023/05/05 08:38:05;;;;;;;930.40;870.28;;;21.60;99.90;;;22.62;100.00;100246.25;4926843;29;20261;-78
2023/05/05 08:40:33;;;;;;;931.40;871.78;;;;;;;22.59;100.00;100155.63;4934321;28;20300;-77
2023/05/05 08:43:01;;;;;;;947.05;886.10;;;;;;;22.37;100.00;100081.19;4926380;29;20230;-77
2023/05/05 08:45:29;;;;;;;961.95;900.67;;;22.30;99.90;;;22.82;100.00;100089.03;4941272;28;20292;-77
2023/05/05 08:48:00;;;;;;;966.58;905.30;;;22.50;99.90;;;23.11;100.00;100047.19;4924588;28;20238;-77
2023/05/05 08:50:28;;;;;;;971.45;910.47;;;22.60;99.90;;;22.66;100.00;99984.59;4927775;28;20309;-78
2023/05/05 08:53:15;;;;;;;979.40;917.75;;;22.60;99.90;;;22.98;100.00;100003.75;4931835;28;20803;-78
2023/05/05 08:55:52;;;;;;;979.10;917.97;;;22.50;99.90;;;22.60;100.00;99857.34;4932457;29;20233;-78
2023/05/05 08:58:20;;;;;;;985.95;923.90;;;;;;;23.04;100.00;99938.72;4916153;29;20230;-77
2023/05/05 09:00:47;;;;;;;990.95;929.20;;;22.50;99.90;;;22.88;100.00;99825.38;4917083;29;20309;-78
2023/05/05 09:03:15;;;;;;;990.88;928.65;;;22.60;99.90;;;22.96;100.00;99798.91;4918872;28;20230;-77
2023/05/05 09:05:43;;;;;;;993.53;931.33;;;22.60;99.90;;;23.49;100.00;99894.19;4930803;28;20239;-77
2023/05/05 09:08:10;;;;;;;1004.05;940.45;;;23.10;99.90;;;23.38;100.00;99829.97;4928859;28;20331;-77
2023/05/05 09:10:41;;;;;;;1010.10;946.95;;;23.20;99.90;;;23.36;100.00;99794.09;4922112;29;20304;-77
2023/05/05 09:13:08;;;;;;;1008.75;945.17;;;23.10;99.90;;;23.82;100.00;99842.94;4928762;28;20674;-77
2023/05/05 09:15:37;;;;;;;1021.83;957.70;;;23.30;99.90;;;23.73;100.00;99787.63;4929717;29;20237;-77
2023/05/05 09:18:10;;;;;;;1020.58;956.47;;;23.40;99.90;;;23.40;100.00;99700.38;4934326;28;20230;-78
2023/05/05 09:20:39;;;;;;;1024.90;961.50;;;23.10;99.90;;;23.66;100.00;99736.75;4933206;29;20229;-78
2023/05/05 09:23:14;;;;;;;1016.78;953.45;;;23.10;99.90;;;23.64;100.00;99693.66;4933053;28;20321;-78
2023/05/05 09:25:45;;;;;;;1023.72;960.08;;;23.30;99.90;;;24.27;100.00;99781.94;4933008;28;20261;-77
2023/05/05 09:28:16;;;;;;;1030.07;965.72;;;23.70;99.90;;;23.85;100.00;99695.16;4932962;28;20241;-77
2023/05/05 09:30:51;;;;;;;1033.13;969.15;;;23.50;99.90;;;23.98;100.00;99686.34;4934758;28;20241;-82
2023/05/05 09:33:36;;;;;;;1039.32;974.67;;;23.50;99.90;;;24.23;100.00;99665.03;4936334;28;20240;-80
2023/05/05 09:36:04;;;;;;;1039.95;975.60;;;;;;;23.82;100.00;99603.50;4938846;29;20280;-78
2023/05/05 09:38:31;;;;;;;1041.95;976.97;;;23.50;99.90;;;23.50;100.00;99562.16;4935195;28;20315;-78
2023/05/05 09:40:58;;;;;;;1047.53;982.67;;;23.60;99.90;;;24.28;100.00;99664.78;4930299;28;20731;-77
2023/05/05 09:43:25;;;;;;;1049.88;984.20;;;23.90;99.90;;;24.24;100.00;99645.16;4928799;28;20321;-78
2023/05/05 09:46:06;;;;;;;1050.53;985.55;;;23.90;99.90;;;24.47;100.00;99603.25;4931619;28;20258;-78
2023/05/05 09:48:33;;;;;;;1065.53;996.00;;;24.60;99.90;;;25.13;100.00;99690.22;4926356;29;20316;-77
2023/05/05 09:51:00;;;;;;;1060.10;994.05;;;25.20;99.90;;;24.60;100.00;99528.56;4930649;28;20234;-78
2023/05/05 09:53:39;;;;;;;1071.72;998.92;;;24.40;99.90;;;24.52;100.00;99552.50;4923306;28;20258;-78